EZY33 EGPH-EGCC
Flight info
| Callsign | EZY33 |
|---|---|
| Flight time | N/A |
| Altitude | 25000 |
| Route | GOSAM1D GOSAM P600 FENIK L612 LAKEY LAKEY1M |
| Aircraft | A320/M-V/N |
Departure
| Time | 2026-05-05 21:52 |
|---|---|
| Airport | Edinburgh Airport (EGPH) |
Arrival
| Time | N/A |
|---|---|
| Airport | Manchester Airport (EGCC) |
| Time | Latitude | Longitude | Altitude | Speed | Heading |
|---|---|---|---|---|---|
| 2026-05-05 21:30 | 55.94879 | -3.36545 | 106 ft | 0 kts | 149° |
| 2026-05-05 21:41 | 55.94891 | -3.36558 | 105 ft | 3 kts | 149° |
| 2026-05-05 21:41 | 55.94907 | -3.36576 | 105 ft | 3 kts | 148° |
| 2026-05-05 21:41 | 55.94922 | -3.36596 | 105 ft | 3 kts | 125° |
| 2026-05-05 21:42 | 55.94930 | -3.36626 | 107 ft | 3 kts | 89° |
| 2026-05-05 21:42 | 55.94927 | -3.36654 | 104 ft | 2 kts | 59° |
| 2026-05-05 21:42 | 55.94924 | -3.36664 | 105 ft | 0 kts | 59° |
| 2026-05-05 21:46 | 55.94924 | -3.36662 | 105 ft | 0 kts | 59° |
| 2026-05-05 21:46 | 55.94925 | -3.36662 | 105 ft | 0 kts | 59° |
| 2026-05-05 21:47 | 55.94925 | -3.36661 | 105 ft | 1 kts | 59° |
| 2026-05-05 21:47 | 55.94939 | -3.36617 | 106 ft | 9 kts | 60° |
| 2026-05-05 21:47 | 55.94989 | -3.36469 | 107 ft | 11 kts | 58° |
| 2026-05-05 21:47 | 55.95014 | -3.36409 | 107 ft | 7 kts | 43° |
| 2026-05-05 21:48 | 55.95069 | -3.36453 | 108 ft | 10 kts | 270° |
| 2026-05-05 21:48 | 55.95034 | -3.36574 | 107 ft | 16 kts | 239° |
| 2026-05-05 21:48 | 55.94973 | -3.36756 | 106 ft | 18 kts | 239° |
| 2026-05-05 21:48 | 55.94902 | -3.36964 | 104 ft | 21 kts | 236° |
| 2026-05-05 21:49 | 55.94824 | -3.37193 | 105 ft | 22 kts | 237° |
| 2026-05-05 21:49 | 55.94747 | -3.37421 | 109 ft | 21 kts | 237° |
| 2026-05-05 21:49 | 55.94669 | -3.37646 | 113 ft | 21 kts | 241° |
| 2026-05-05 21:49 | 55.94595 | -3.37869 | 112 ft | 19 kts | 237° |
| 2026-05-05 21:50 | 55.94525 | -3.38080 | 111 ft | 21 kts | 240° |
| 2026-05-05 21:50 | 55.94446 | -3.38309 | 113 ft | 22 kts | 240° |
| 2026-05-05 21:50 | 55.94367 | -3.38537 | 114 ft | 21 kts | 240° |
| 2026-05-05 21:50 | 55.94302 | -3.38737 | 117 ft | 14 kts | 236° |
| 2026-05-05 21:51 | 55.94300 | -3.38870 | 117 ft | 11 kts | 319° |
| 2026-05-05 21:51 | 55.94361 | -3.38941 | 117 ft | 11 kts | 331° |
| 2026-05-05 21:51 | 55.94417 | -3.38964 | 118 ft | 5 kts | 60° |
| 2026-05-05 21:51 | 55.94433 | -3.38916 | 118 ft | 6 kts | 60° |
| 2026-05-05 21:52 | 55.95041 | -3.37118 | 115 ft | 163 kts | 60° |
| 2026-05-05 21:52 | 55.95664 | -3.35299 | 767 ft | 180 kts | 58° |
| 2026-05-05 21:52 | 55.96395 | -3.33270 | 1223 ft | 207 kts | 53° |
| 2026-05-05 21:53 | 55.97626 | -3.31505 | 843 ft | 244 kts | 24° |
| 2026-05-05 21:53 | 55.99327 | -3.31284 | 1163 ft | 255 kts | 341° |
| 2026-05-05 21:53 | 56.00757 | -3.33087 | 2127 ft | 257 kts | 305° |
| 2026-05-05 21:53 | 56.01450 | -3.36025 | 3101 ft | 259 kts | 283° |
| 2026-05-05 21:54 | 56.01756 | -3.39216 | 4081 ft | 262 kts | 277° |
| 2026-05-05 21:54 | 56.01899 | -3.42475 | 5001 ft | 266 kts | 265° |
| 2026-05-05 21:54 | 56.01578 | -3.45769 | 5635 ft | 271 kts | 255° |
| 2026-05-05 21:54 | 56.01001 | -3.48972 | 5831 ft | 271 kts | 252° |
| 2026-05-05 21:55 | 56.00481 | -3.52207 | 5874 ft | 271 kts | 255° |
| 2026-05-05 21:55 | 56.00021 | -3.55463 | 5884 ft | 270 kts | 256° |
| 2026-05-05 21:55 | 55.99579 | -3.58732 | 5879 ft | 270 kts | 256° |
| 2026-05-05 21:55 | 55.99137 | -3.61996 | 5877 ft | 271 kts | 256° |
| 2026-05-05 21:56 | 55.98696 | -3.65220 | 5881 ft | 270 kts | 256° |
| 2026-05-05 21:56 | 55.98239 | -3.68477 | 5877 ft | 270 kts | 256° |
| 2026-05-05 21:56 | 55.97771 | -3.71756 | 6134 ft | 274 kts | 256° |
| 2026-05-05 21:56 | 55.97298 | -3.75051 | 7109 ft | 275 kts | 256° |
| 2026-05-05 21:57 | 55.96818 | -3.78372 | 8011 ft | 278 kts | 256° |
| 2026-05-05 21:57 | 55.96331 | -3.81745 | 8876 ft | 282 kts | 256° |
| 2026-05-05 21:57 | 55.95836 | -3.85155 | 9720 ft | 285 kts | 255° |
| 2026-05-05 21:57 | 55.95326 | -3.88651 | 10280 ft | 301 kts | 255° |
| 2026-05-05 21:58 | 55.94780 | -3.92406 | 10552 ft | 325 kts | 255° |
| 2026-05-05 21:58 | 55.94181 | -3.96454 | 10769 ft | 349 kts | 253° |
| 2026-05-05 21:58 | 55.93154 | -4.00509 | 10954 ft | 370 kts | 237° |
| 2026-05-05 21:58 | 55.91519 | -4.03902 | 11413 ft | 362 kts | 221° |
| 2026-05-05 21:59 | 55.89580 | -4.06221 | 11748 ft | 311 kts | 205° |
| 2026-05-05 21:59 | 55.87744 | -4.07896 | 11967 ft | 284 kts | 208° |
| 2026-05-05 22:00 | 55.86149 | -4.09622 | 12195 ft | 275 kts | 220° |
| 2026-05-05 22:00 | 55.84591 | -4.11985 | 12461 ft | 312 kts | 221° |
| 2026-05-05 22:00 | 55.82935 | -4.14749 | 12929 ft | 339 kts | 226° |
| 2026-05-05 22:00 | 55.81364 | -4.18073 | 13429 ft | 361 kts | 233° |
| 2026-05-05 22:01 | 55.79746 | -4.21544 | 13957 ft | 368 kts | 225° |
| 2026-05-05 22:01 | 55.77856 | -4.24297 | 14419 ft | 334 kts | 214° |
| 2026-05-05 22:01 | 55.75930 | -4.26234 | 14819 ft | 303 kts | 205° |
| 2026-05-05 22:01 | 55.74023 | -4.27504 | 15189 ft | 294 kts | 196° |
| 2026-05-05 22:02 | 55.71920 | -4.28191 | 15560 ft | 325 kts | 184° |
| 2026-05-05 22:02 | 55.69521 | -4.28165 | 15168 ft | 354 kts | 175° |
| 2026-05-05 22:02 | 55.67111 | -4.27535 | 14751 ft | 347 kts | 168° |
| 2026-05-05 22:02 | 55.64776 | -4.26494 | 14465 ft | 357 kts | 164° |
| 2026-05-05 22:03 | 55.62270 | -4.25102 | 14260 ft | 398 kts | 161° |